Terminal Aerodrome Forecast
Issued by NWS Kansas City/Pleasant Hill, MO

Home | Current Version | Previous Version | Text Only | Print | Product List | Glossary On
Versions: 1 2 3 4 5 6 7 8 9 10 11 12 13 14 15 16 17 18 19 20 21 22
000
FTUS43 KEAX 021136 AAD
TAFMCI
TAF AMD
KMCI 021136Z 0212/0306 33006KT P6SM OVC035
      TEMPO 0212/0215 BKN025
     FM021500 36006KT P6SM OVC040
     FM030000 35005KT P6SM SCT100=

USA.gov is the U.S. government's official web portal to all federal, state and local government web resources and services.